sensor_id;sensor_type;location;lat;lon;timestamp;temperature;humidity
16074;DHT22;8141;52.664;5.074;2023-03-30T00:00:58;19.90;53.10
16074;DHT22;8141;52.664;5.074;2023-03-30T00:03:25;20.00;53.10
16074;DHT22;8141;52.664;5.074;2023-03-30T00:05:52;20.00;53.20
16074;DHT22;8141;52.664;5.074;2023-03-30T00:08:25;20.00;53.20
16074;DHT22;8141;52.664;5.074;2023-03-30T00:13:28;20.00;53.20
16074;DHT22;8141;52.664;5.074;2023-03-30T00:15:54;20.00;53.20
16074;DHT22;8141;52.664;5.074;2023-03-30T00:18:20;20.00;53.20
16074;DHT22;8141;52.664;5.074;2023-03-30T00:20:49;20.00;53.20
16074;DHT22;8141;52.664;5.074;2023-03-30T00:23:17;20.00;53.20
16074;DHT22;8141;52.664;5.074;2023-03-30T00:25:44;20.00;53.20
16074;DHT22;8141;52.664;5.074;2023-03-30T00:28:10;20.00;53.20
16074;DHT22;8141;52.664;5.074;2023-03-30T00:30:35;20.00;53.20
16074;DHT22;8141;52.664;5.074;2023-03-30T00:33:02;20.00;53.20
16074;DHT22;8141;52.664;5.074;2023-03-30T00:35:28;20.00;53.10
16074;DHT22;8141;52.664;5.074;2023-03-30T00:37:56;20.00;53.10
16074;DHT22;8141;52.664;5.074;2023-03-30T00:40:22;20.00;53.20
16074;DHT22;8141;52.664;5.074;2023-03-30T00:42:48;20.00;53.20
16074;DHT22;8141;52.664;5.074;2023-03-30T00:45:18;20.00;53.20
16074;DHT22;8141;52.664;5.074;2023-03-30T00:48:03;20.00;53.30
16074;DHT22;8141;52.664;5.074;2023-03-30T00:50:54;20.00;53.30
16074;DHT22;8141;52.664;5.074;2023-03-30T00:53:33;20.00;53.30
16074;DHT22;8141;52.664;5.074;2023-03-30T00:56:03;20.00;53.30
16074;DHT22;8141;52.664;5.074;2023-03-30T00:58:32;20.00;53.30
16074;DHT22;8141;52.664;5.074;2023-03-30T01:01:03;20.00;53.30
16074;DHT22;8141;52.664;5.074;2023-03-30T01:03:33;20.00;53.20
16074;DHT22;8141;52.664;5.074;2023-03-30T01:06:04;20.00;53.30
16074;DHT22;8141;52.664;5.074;2023-03-30T01:08:32;20.00;53.30
16074;DHT22;8141;52.664;5.074;2023-03-30T01:11:00;20.00;53.30
16074;DHT22;8141;52.664;5.074;2023-03-30T01:13:27;20.00;53.30
16074;DHT22;8141;52.664;5.074;2023-03-30T01:25:49;20.00;53.30
16074;DHT22;8141;52.664;5.074;2023-03-30T01:28:42;20.00;53.30
16074;DHT22;8141;52.664;5.074;2023-03-30T01:35:04;20.00;53.50
16074;DHT22;8141;52.664;5.074;2023-03-30T01:40:39;20.00;53.50
16074;DHT22;8141;52.664;5.074;2023-03-30T01:43:15;20.00;53.50
16074;DHT22;8141;52.664;5.074;2023-03-30T01:45:45;20.00;53.40
16074;DHT22;8141;52.664;5.074;2023-03-30T01:48:27;20.00;53.40
16074;DHT22;8141;52.664;5.074;2023-03-30T01:51:04;20.00;53.50
16074;DHT22;8141;52.664;5.074;2023-03-30T01:53:39;20.00;53.50
16074;DHT22;8141;52.664;5.074;2023-03-30T01:56:24;20.00;53.40
16074;DHT22;8141;52.664;5.074;2023-03-30T01:59:09;20.00;53.40
16074;DHT22;8141;52.664;5.074;2023-03-30T02:01:42;20.00;53.40
16074;DHT22;8141;52.664;5.074;2023-03-30T02:04:15;20.00;53.40
16074;DHT22;8141;52.664;5.074;2023-03-30T02:07:05;20.00;53.50
16074;DHT22;8141;52.664;5.074;2023-03-30T02:09:35;20.00;53.40
16074;DHT22;8141;52.664;5.074;2023-03-30T02:12:03;20.00;53.40
16074;DHT22;8141;52.664;5.074;2023-03-30T02:14:31;20.00;53.30
16074;DHT22;8141;52.664;5.074;2023-03-30T02:19:42;20.00;53.50
16074;DHT22;8141;52.664;5.074;2023-03-30T02:22:12;20.00;53.50
16074;DHT22;8141;52.664;5.074;2023-03-30T02:24:40;20.00;53.50
16074;DHT22;8141;52.664;5.074;2023-03-30T02:27:08;20.00;53.40
16074;DHT22;8141;52.664;5.074;2023-03-30T02:29:36;20.00;53.50
16074;DHT22;8141;52.664;5.074;2023-03-30T02:32:14;20.10;53.50
16074;DHT22;8141;52.664;5.074;2023-03-30T02:35:02;20.00;53.60
16074;DHT22;8141;52.664;5.074;2023-03-30T02:43:36;20.10;53.60
16074;DHT22;8141;52.664;5.074;2023-03-30T02:46:32;20.10;53.60
16074;DHT22;8141;52.664;5.074;2023-03-30T02:49:17;20.00;53.60
16074;DHT22;8141;52.664;5.074;2023-03-30T02:54:49;20.00;53.60
16074;DHT22;8141;52.664;5.074;2023-03-30T02:57:35;20.10;54.30
16074;DHT22;8141;52.664;5.074;2023-03-30T03:00:21;20.00;53.60
16074;DHT22;8141;52.664;5.074;2023-03-30T03:02:54;20.10;53.70
16074;DHT22;8141;52.664;5.074;2023-03-30T03:05:24;20.10;53.60
16074;DHT22;8141;52.664;5.074;2023-03-30T03:07:50;20.10;53.70
16074;DHT22;8141;52.664;5.074;2023-03-30T03:10:18;20.10;53.70
16074;DHT22;8141;52.664;5.074;2023-03-30T03:12:44;20.10;53.70
16074;DHT22;8141;52.664;5.074;2023-03-30T03:15:10;20.00;53.70
16074;DHT22;8141;52.664;5.074;2023-03-30T03:17:36;20.10;53.80
16074;DHT22;8141;52.664;5.074;2023-03-30T03:20:04;20.10;53.70
16074;DHT22;8141;52.664;5.074;2023-03-30T03:22:32;20.10;53.70
16074;DHT22;8141;52.664;5.074;2023-03-30T03:24:57;20.10;53.70
16074;DHT22;8141;52.664;5.074;2023-03-30T03:27:23;20.10;53.70
16074;DHT22;8141;52.664;5.074;2023-03-30T03:29:49;20.10;53.70
16074;DHT22;8141;52.664;5.074;2023-03-30T03:32:15;20.00;53.60
16074;DHT22;8141;52.664;5.074;2023-03-30T03:34:41;20.10;53.70
16074;DHT22;8141;52.664;5.074;2023-03-30T03:37:10;20.10;53.70
16074;DHT22;8141;52.664;5.074;2023-03-30T03:39:37;20.10;53.80
16074;DHT22;8141;52.664;5.074;2023-03-30T03:42:04;20.10;53.80
16074;DHT22;8141;52.664;5.074;2023-03-30T03:44:31;20.10;54.10
16074;DHT22;8141;52.664;5.074;2023-03-30T03:46:57;20.10;54.50
16074;DHT22;8141;52.664;5.074;2023-03-30T03:49:22;20.10;54.10
16074;DHT22;8141;52.664;5.074;2023-03-30T03:51:48;20.10;54.60
16074;DHT22;8141;52.664;5.074;2023-03-30T03:54:14;20.10;54.00
16074;DHT22;8141;52.664;5.074;2023-03-30T03:56:41;20.10;54.00
16074;DHT22;8141;52.664;5.074;2023-03-30T03:59:06;20.10;53.90
16074;DHT22;8141;52.664;5.074;2023-03-30T04:01:32;20.10;53.80
16074;DHT22;8141;52.664;5.074;2023-03-30T04:03:58;20.10;53.80
16074;DHT22;8141;52.664;5.074;2023-03-30T04:06:24;20.10;53.80
16074;DHT22;8141;52.664;5.074;2023-03-30T04:08:50;20.10;53.80
16074;DHT22;8141;52.664;5.074;2023-03-30T04:11:16;20.10;53.80
16074;DHT22;8141;52.664;5.074;2023-03-30T04:13:42;20.10;53.70
16074;DHT22;8141;52.664;5.074;2023-03-30T04:16:08;20.10;53.70
16074;DHT22;8141;52.664;5.074;2023-03-30T04:18:34;20.10;53.70
16074;DHT22;8141;52.664;5.074;2023-03-30T04:21:02;20.10;53.80
16074;DHT22;8141;52.664;5.074;2023-03-30T04:23:30;20.10;54.30
16074;DHT22;8141;52.664;5.074;2023-03-30T04:26:02;20.10;53.70
16074;DHT22;8141;52.664;5.074;2023-03-30T04:28:29;20.10;53.70
16074;DHT22;8141;52.664;5.074;2023-03-30T04:31:02;20.10;53.70
16074;DHT22;8141;52.664;5.074;2023-03-30T04:33:30;20.10;53.70
16074;DHT22;8141;52.664;5.074;2023-03-30T04:35:59;20.10;53.70
16074;DHT22;8141;52.664;5.074;2023-03-30T04:38:25;20.10;53.60
16074;DHT22;8141;52.664;5.074;2023-03-30T04:40:52;20.10;53.60
16074;DHT22;8141;52.664;5.074;2023-03-30T04:43:21;20.10;53.60
16074;DHT22;8141;52.664;5.074;2023-03-30T04:45:48;20.10;53.60
16074;DHT22;8141;52.664;5.074;2023-03-30T04:48:19;20.10;53.60
16074;DHT22;8141;52.664;5.074;2023-03-30T04:50:48;20.10;53.60
16074;DHT22;8141;52.664;5.074;2023-03-30T04:53:16;20.10;53.50
16074;DHT22;8141;52.664;5.074;2023-03-30T04:55:47;20.10;53.50
16074;DHT22;8141;52.664;5.074;2023-03-30T04:58:14;20.10;53.50
16074;DHT22;8141;52.664;5.074;2023-03-30T05:00:40;20.10;53.50
16074;DHT22;8141;52.664;5.074;2023-03-30T05:03:06;20.10;53.60
16074;DHT22;8141;52.664;5.074;2023-03-30T05:05:32;20.10;53.40
16074;DHT22;8141;52.664;5.074;2023-03-30T05:07:58;20.10;53.50
16074;DHT22;8141;52.664;5.074;2023-03-30T05:10:25;20.10;53.40
16074;DHT22;8141;52.664;5.074;2023-03-30T05:12:54;20.10;53.40
16074;DHT22;8141;52.664;5.074;2023-03-30T05:15:21;20.10;53.40
16074;DHT22;8141;52.664;5.074;2023-03-30T05:17:47;20.10;53.40
16074;DHT22;8141;52.664;5.074;2023-03-30T05:20:13;20.10;53.40
16074;DHT22;8141;52.664;5.074;2023-03-30T05:22:39;20.10;53.30
16074;DHT22;8141;52.664;5.074;2023-03-30T05:25:06;20.10;53.30
16074;DHT22;8141;52.664;5.074;2023-03-30T05:27:32;20.10;53.40
16074;DHT22;8141;52.664;5.074;2023-03-30T05:29:58;20.10;53.30
16074;DHT22;8141;52.664;5.074;2023-03-30T05:32:24;20.10;53.30
16074;DHT22;8141;52.664;5.074;2023-03-30T05:34:49;20.10;53.30
16074;DHT22;8141;52.664;5.074;2023-03-30T05:37:15;20.10;53.30
16074;DHT22;8141;52.664;5.074;2023-03-30T05:39:41;20.10;53.30
16074;DHT22;8141;52.664;5.074;2023-03-30T05:42:08;20.10;53.20
16074;DHT22;8141;52.664;5.074;2023-03-30T05:44:34;20.10;53.20
16074;DHT22;8141;52.664;5.074;2023-03-30T05:47:00;20.10;53.20
16074;DHT22;8141;52.664;5.074;2023-03-30T05:49:26;20.10;53.20
16074;DHT22;8141;52.664;5.074;2023-03-30T05:51:52;20.10;53.30
16074;DHT22;8141;52.664;5.074;2023-03-30T05:54:18;20.10;53.20
16074;DHT22;8141;52.664;5.074;2023-03-30T05:56:43;20.10;53.20
16074;DHT22;8141;52.664;5.074;2023-03-30T05:59:10;20.10;53.20
16074;DHT22;8141;52.664;5.074;2023-03-30T06:01:37;20.10;53.10
16074;DHT22;8141;52.664;5.074;2023-03-30T06:04:03;20.10;53.10
16074;DHT22;8141;52.664;5.074;2023-03-30T06:06:29;20.10;53.10
16074;DHT22;8141;52.664;5.074;2023-03-30T06:08:55;20.10;53.10
16074;DHT22;8141;52.664;5.074;2023-03-30T06:11:21;20.00;53.10
16074;DHT22;8141;52.664;5.074;2023-03-30T06:13:47;20.10;53.10
16074;DHT22;8141;52.664;5.074;2023-03-30T06:16:13;20.10;53.10
16074;DHT22;8141;52.664;5.074;2023-03-30T06:18:39;20.10;53.10
16074;DHT22;8141;52.664;5.074;2023-03-30T06:21:05;20.00;53.10
16074;DHT22;8141;52.664;5.074;2023-03-30T06:23:35;20.10;53.10
16074;DHT22;8141;52.664;5.074;2023-03-30T06:26:02;20.00;53.00
16074;DHT22;8141;52.664;5.074;2023-03-30T06:28:28;20.10;53.00
16074;DHT22;8141;52.664;5.074;2023-03-30T06:30:54;20.10;53.10
16074;DHT22;8141;52.664;5.074;2023-03-30T06:33:20;20.10;53.00
16074;DHT22;8141;52.664;5.074;2023-03-30T06:35:47;20.10;53.10
16074;DHT22;8141;52.664;5.074;2023-03-30T06:38:15;20.10;53.00
16074;DHT22;8141;52.664;5.074;2023-03-30T06:40:41;20.10;53.00
16074;DHT22;8141;52.664;5.074;2023-03-30T06:43:14;20.10;53.00
16074;DHT22;8141;52.664;5.074;2023-03-30T06:45:42;20.00;53.00
16074;DHT22;8141;52.664;5.074;2023-03-30T06:48:08;20.10;53.00
16074;DHT22;8141;52.664;5.074;2023-03-30T06:50:34;20.10;53.00
16074;DHT22;8141;52.664;5.074;2023-03-30T06:53:01;20.10;53.00
16074;DHT22;8141;52.664;5.074;2023-03-30T06:55:27;20.10;53.00
16074;DHT22;8141;52.664;5.074;2023-03-30T06:57:52;20.10;53.00
16074;DHT22;8141;52.664;5.074;2023-03-30T07:00:19;20.10;53.00
16074;DHT22;8141;52.664;5.074;2023-03-30T07:02:45;20.10;53.00
16074;DHT22;8141;52.664;5.074;2023-03-30T07:05:10;20.10;52.90
16074;DHT22;8141;52.664;5.074;2023-03-30T07:07:37;20.10;52.90
16074;DHT22;8141;52.664;5.074;2023-03-30T07:10:04;20.10;52.90
16074;DHT22;8141;52.664;5.074;2023-03-30T07:12:35;20.10;52.90
16074;DHT22;8141;52.664;5.074;2023-03-30T07:15:04;20.10;52.90
16074;DHT22;8141;52.664;5.074;2023-03-30T07:17:32;20.10;53.00
16074;DHT22;8141;52.664;5.074;2023-03-30T07:19:59;20.10;52.90
16074;DHT22;8141;52.664;5.074;2023-03-30T07:22:25;20.10;53.00
16074;DHT22;8141;52.664;5.074;2023-03-30T07:24:52;20.10;52.90
16074;DHT22;8141;52.664;5.074;2023-03-30T07:27:17;20.10;52.90
16074;DHT22;8141;52.664;5.074;2023-03-30T07:29:43;20.10;52.90
16074;DHT22;8141;52.664;5.074;2023-03-30T07:32:09;20.10;52.90
16074;DHT22;8141;52.664;5.074;2023-03-30T07:34:34;20.10;52.90
16074;DHT22;8141;52.664;5.074;2023-03-30T07:37:00;20.10;52.90
16074;DHT22;8141;52.664;5.074;2023-03-30T07:39:27;20.10;52.90
16074;DHT22;8141;52.664;5.074;2023-03-30T07:41:53;20.10;52.90
16074;DHT22;8141;52.664;5.074;2023-03-30T07:44:20;20.10;52.90
16074;DHT22;8141;52.664;5.074;2023-03-30T07:46:46;20.10;52.80
16074;DHT22;8141;52.664;5.074;2023-03-30T07:49:12;20.10;52.80
16074;DHT22;8141;52.664;5.074;2023-03-30T07:51:37;20.10;52.80
16074;DHT22;8141;52.664;5.074;2023-03-30T07:54:04;20.10;52.90
16074;DHT22;8141;52.664;5.074;2023-03-30T07:56:30;20.10;52.80
16074;DHT22;8141;52.664;5.074;2023-03-30T07:58:58;20.10;52.80
16074;DHT22;8141;52.664;5.074;2023-03-30T08:01:25;20.10;52.80
16074;DHT22;8141;52.664;5.074;2023-03-30T08:03:51;20.20;52.90
16074;DHT22;8141;52.664;5.074;2023-03-30T08:06:17;20.10;52.80
16074;DHT22;8141;52.664;5.074;2023-03-30T08:08:43;20.10;52.80
16074;DHT22;8141;52.664;5.074;2023-03-30T08:11:08;20.10;52.80
16074;DHT22;8141;52.664;5.074;2023-03-30T08:13:35;20.10;52.80
16074;DHT22;8141;52.664;5.074;2023-03-30T08:16:02;20.10;52.70
16074;DHT22;8141;52.664;5.074;2023-03-30T08:18:28;20.10;52.70
16074;DHT22;8141;52.664;5.074;2023-03-30T08:20:54;20.10;52.70
16074;DHT22;8141;52.664;5.074;2023-03-30T08:23:21;20.20;52.80
16074;DHT22;8141;52.664;5.074;2023-03-30T08:25:47;20.20;52.80
16074;DHT22;8141;52.664;5.074;2023-03-30T08:28:19;20.20;52.80
16074;DHT22;8141;52.664;5.074;2023-03-30T08:30:46;20.10;52.70
16074;DHT22;8141;52.664;5.074;2023-03-30T08:33:12;20.20;52.70
16074;DHT22;8141;52.664;5.074;2023-03-30T08:35:42;20.20;52.70
16074;DHT22;8141;52.664;5.074;2023-03-30T08:38:08;20.20;52.70
16074;DHT22;8141;52.664;5.074;2023-03-30T08:40:38;20.20;53.30
16074;DHT22;8141;52.664;5.074;2023-03-30T08:43:18;20.20;52.70
16074;DHT22;8141;52.664;5.074;2023-03-30T08:45:50;20.20;52.70
16074;DHT22;8141;52.664;5.074;2023-03-30T08:48:18;20.20;52.70
16074;DHT22;8141;52.664;5.074;2023-03-30T08:53:28;20.20;52.70
16074;DHT22;8141;52.664;5.074;2023-03-30T08:56:00;20.20;52.70
16074;DHT22;8141;52.664;5.074;2023-03-30T09:01:23;20.20;52.70
16074;DHT22;8141;52.664;5.074;2023-03-30T09:04:11;20.10;52.60
16074;DHT22;8141;52.664;5.074;2023-03-30T09:06:52;20.20;52.70
16074;DHT22;8141;52.664;5.074;2023-03-30T09:09:26;20.20;52.70
16074;DHT22;8141;52.664;5.074;2023-03-30T09:12:00;20.20;52.80
16074;DHT22;8141;52.664;5.074;2023-03-30T09:14:36;20.20;52.70
16074;DHT22;8141;52.664;5.074;2023-03-30T09:17:14;20.20;52.70
16074;DHT22;8141;52.664;5.074;2023-03-30T09:19:57;20.20;52.60
16074;DHT22;8141;52.664;5.074;2023-03-30T09:22:36;20.20;52.70
16074;DHT22;8141;52.664;5.074;2023-03-30T09:28:23;20.20;52.60
16074;DHT22;8141;52.664;5.074;2023-03-30T09:34:03;20.20;52.70
16074;DHT22;8141;52.664;5.074;2023-03-30T09:39:25;20.30;52.80
16074;DHT22;8141;52.664;5.074;2023-03-30T09:44:36;20.30;52.70
16074;DHT22;8141;52.664;5.074;2023-03-30T09:47:27;20.30;52.70
16074;DHT22;8141;52.664;5.074;2023-03-30T09:50:23;20.30;52.70
16074;DHT22;8141;52.664;5.074;2023-03-30T09:53:02;20.30;52.70
16074;DHT22;8141;52.664;5.074;2023-03-30T09:55:33;20.30;52.70
16074;DHT22;8141;52.664;5.074;2023-03-30T09:58:26;20.30;52.80
16074;DHT22;8141;52.664;5.074;2023-03-30T10:03:31;20.30;52.80
16074;DHT22;8141;52.664;5.074;2023-03-30T10:06:09;20.30;52.80
16074;DHT22;8141;52.664;5.074;2023-03-30T10:11:20;20.30;52.80
16074;DHT22;8141;52.664;5.074;2023-03-30T10:13:56;20.30;52.80
16074;DHT22;8141;52.664;5.074;2023-03-30T10:16:24;20.40;52.80
16074;DHT22;8141;52.664;5.074;2023-03-30T10:18:53;20.40;52.80
16074;DHT22;8141;52.664;5.074;2023-03-30T10:21:22;20.40;52.80
16074;DHT22;8141;52.664;5.074;2023-03-30T10:24:19;20.40;53.40
16074;DHT22;8141;52.664;5.074;2023-03-30T10:26:52;20.40;52.70
16074;DHT22;8141;52.664;5.074;2023-03-30T10:29:27;20.40;52.70
16074;DHT22;8141;52.664;5.074;2023-03-30T10:32:20;20.40;52.70
16074;DHT22;8141;52.664;5.074;2023-03-30T10:34:58;20.40;52.60
16074;DHT22;8141;52.664;5.074;2023-03-30T10:37:31;20.40;52.70
16074;DHT22;8141;52.664;5.074;2023-03-30T10:40:19;20.50;52.70
16074;DHT22;8141;52.664;5.074;2023-03-30T10:42:54;20.50;52.70
16074;DHT22;8141;52.664;5.074;2023-03-30T10:50:51;20.50;52.60
16074;DHT22;8141;52.664;5.074;2023-03-30T10:56:44;20.50;52.60
16074;DHT22;8141;52.664;5.074;2023-03-30T11:02:32;20.50;52.50
16074;DHT22;8141;52.664;5.074;2023-03-30T11:05:38;20.50;52.50
16074;DHT22;8141;52.664;5.074;2023-03-30T11:08:16;20.50;52.50
16074;DHT22;8141;52.664;5.074;2023-03-30T11:10:51;20.60;52.50
16074;DHT22;8141;52.664;5.074;2023-03-30T11:13:31;20.60;52.40
16074;DHT22;8141;52.664;5.074;2023-03-30T11:16:13;20.50;52.40
16074;DHT22;8141;52.664;5.074;2023-03-30T11:21:29;20.60;52.40
16074;DHT22;8141;52.664;5.074;2023-03-30T11:24:19;20.60;52.40
16074;DHT22;8141;52.664;5.074;2023-03-30T11:26:54;20.60;52.40
16074;DHT22;8141;52.664;5.074;2023-03-30T11:35:45;20.60;52.40
16074;DHT22;8141;52.664;5.074;2023-03-30T11:38:26;20.60;52.30
16074;DHT22;8141;52.664;5.074;2023-03-30T11:41:09;20.60;52.30
16074;DHT22;8141;52.664;5.074;2023-03-30T11:43:37;20.60;52.30
16074;DHT22;8141;52.664;5.074;2023-03-30T11:46:13;20.70;52.30
16074;DHT22;8141;52.664;5.074;2023-03-30T11:52:06;20.70;52.30
16074;DHT22;8141;52.664;5.074;2023-03-30T12:00:20;20.70;52.20
16074;DHT22;8141;52.664;5.074;2023-03-30T12:03:18;20.70;52.20
16074;DHT22;8141;52.664;5.074;2023-03-30T12:11:54;20.70;52.20
16074;DHT22;8141;52.664;5.074;2023-03-30T12:14:48;20.70;52.20
16074;DHT22;8141;52.664;5.074;2023-03-30T12:17:54;20.70;52.20
16074;DHT22;8141;52.664;5.074;2023-03-30T12:23:44;20.80;52.20
16074;DHT22;8141;52.664;5.074;2023-03-30T12:26:31;20.70;52.20
16074;DHT22;8141;52.664;5.074;2023-03-30T12:34:36;20.80;52.20
16074;DHT22;8141;52.664;5.074;2023-03-30T12:37:13;20.80;52.30
16074;DHT22;8141;52.664;5.074;2023-03-30T12:39:46;20.80;52.30
16074;DHT22;8141;52.664;5.074;2023-03-30T12:42:25;20.80;52.30
16074;DHT22;8141;52.664;5.074;2023-03-30T12:51:21;20.80;52.30
16074;DHT22;8141;52.664;5.074;2023-03-30T12:54:26;20.80;52.20
16074;DHT22;8141;52.664;5.074;2023-03-30T13:05:44;20.80;52.20
16074;DHT22;8141;52.664;5.074;2023-03-30T13:08:43;20.80;52.10
16074;DHT22;8141;52.664;5.074;2023-03-30T13:11:17;20.80;52.20
16074;DHT22;8141;52.664;5.074;2023-03-30T13:14:24;20.90;52.20
16074;DHT22;8141;52.664;5.074;2023-03-30T13:22:18;20.90;52.20
16074;DHT22;8141;52.664;5.074;2023-03-30T13:25:26;20.90;52.10
16074;DHT22;8141;52.664;5.074;2023-03-30T13:31:20;20.90;52.10
16074;DHT22;8141;52.664;5.074;2023-03-30T13:34:12;20.90;52.10
16074;DHT22;8141;52.664;5.074;2023-03-30T13:36:54;20.90;52.10
16074;DHT22;8141;52.664;5.074;2023-03-30T13:39:36;20.90;52.00
16074;DHT22;8141;52.664;5.074;2023-03-30T13:45:04;20.90;52.00
16074;DHT22;8141;52.664;5.074;2023-03-30T13:51:19;20.90;52.00
16074;DHT22;8141;52.664;5.074;2023-03-30T13:54:05;20.90;52.00
16074;DHT22;8141;52.664;5.074;2023-03-30T13:56:38;20.90;52.00
16074;DHT22;8141;52.664;5.074;2023-03-30T13:59:09;20.90;52.00
16074;DHT22;8141;52.664;5.074;2023-03-30T14:01:38;20.90;52.00
16074;DHT22;8141;52.664;5.074;2023-03-30T14:04:11;20.90;52.00
16074;DHT22;8141;52.664;5.074;2023-03-30T14:06:43;20.90;52.00
16074;DHT22;8141;52.664;5.074;2023-03-30T14:09:16;21.00;52.10
16074;DHT22;8141;52.664;5.074;2023-03-30T14:14:30;21.00;52.00
16074;DHT22;8141;52.664;5.074;2023-03-30T14:17:22;20.90;52.00
16074;DHT22;8141;52.664;5.074;2023-03-30T14:22:46;21.00;51.90
16074;DHT22;8141;52.664;5.074;2023-03-30T14:25:29;21.00;51.90
16074;DHT22;8141;52.664;5.074;2023-03-30T14:28:22;21.00;51.90
16074;DHT22;8141;52.664;5.074;2023-03-30T14:30:52;20.90;51.90
16074;DHT22;8141;52.664;5.074;2023-03-30T14:33:21;21.00;51.90
16074;DHT22;8141;52.664;5.074;2023-03-30T14:35:50;21.00;51.80
16074;DHT22;8141;52.664;5.074;2023-03-30T14:38:23;21.00;51.90
16074;DHT22;8141;52.664;5.074;2023-03-30T14:40:52;21.00;51.70
16074;DHT22;8141;52.664;5.074;2023-03-30T14:43:24;21.00;51.80
16074;DHT22;8141;52.664;5.074;2023-03-30T14:45:55;21.00;51.80
16074;DHT22;8141;52.664;5.074;2023-03-30T14:48:34;21.00;52.30
16074;DHT22;8141;52.664;5.074;2023-03-30T14:51:03;21.00;51.80
16074;DHT22;8141;52.664;5.074;2023-03-30T14:53:34;21.00;51.80
16074;DHT22;8141;52.664;5.074;2023-03-30T14:56:01;21.00;52.10
16074;DHT22;8141;52.664;5.074;2023-03-30T14:58:30;21.00;52.40
16074;DHT22;8141;52.664;5.074;2023-03-30T15:01:01;21.00;52.70
16074;DHT22;8141;52.664;5.074;2023-03-30T15:03:31;21.00;52.60
16074;DHT22;8141;52.664;5.074;2023-03-30T15:06:05;21.00;52.60
16074;DHT22;8141;52.664;5.074;2023-03-30T15:08:33;21.00;52.50
16074;DHT22;8141;52.664;5.074;2023-03-30T15:11:06;21.00;52.60
16074;DHT22;8141;52.664;5.074;2023-03-30T15:13:42;21.10;53.00
16074;DHT22;8141;52.664;5.074;2023-03-30T15:16:19;21.10;52.80
16074;DHT22;8141;52.664;5.074;2023-03-30T15:18:48;21.10;52.80
16074;DHT22;8141;52.664;5.074;2023-03-30T15:21:16;21.10;52.70
16074;DHT22;8141;52.664;5.074;2023-03-30T15:23:44;21.10;52.60
16074;DHT22;8141;52.664;5.074;2023-03-30T15:26:11;21.10;52.50
16074;DHT22;8141;52.664;5.074;2023-03-30T15:28:52;21.10;52.60
16074;DHT22;8141;52.664;5.074;2023-03-30T15:31:22;21.10;52.80
16074;DHT22;8141;52.664;5.074;2023-03-30T15:33:55;21.10;52.50
16074;DHT22;8141;52.664;5.074;2023-03-30T15:36:38;21.10;52.50
16074;DHT22;8141;52.664;5.074;2023-03-30T15:39:19;21.10;52.40
16074;DHT22;8141;52.664;5.074;2023-03-30T15:42:05;21.10;52.40
16074;DHT22;8141;52.664;5.074;2023-03-30T15:44:36;21.10;52.40
16074;DHT22;8141;52.664;5.074;2023-03-30T15:47:08;21.10;52.50
16074;DHT22;8141;52.664;5.074;2023-03-30T15:49:44;21.00;54.00
16074;DHT22;8141;52.664;5.074;2023-03-30T15:52:22;21.00;54.30
16074;DHT22;8141;52.664;5.074;2023-03-30T15:54:52;21.00;54.10
16074;DHT22;8141;52.664;5.074;2023-03-30T15:57:29;21.00;53.90
16074;DHT22;8141;52.664;5.074;2023-03-30T15:59:57;21.00;53.70
16074;DHT22;8141;52.664;5.074;2023-03-30T16:02:42;21.00;53.60
16074;DHT22;8141;52.664;5.074;2023-03-30T16:05:18;21.00;53.50
16074;DHT22;8141;52.664;5.074;2023-03-30T16:07:45;21.00;53.60
16074;DHT22;8141;52.664;5.074;2023-03-30T16:10:13;20.90;53.50
16074;DHT22;8141;52.664;5.074;2023-03-30T16:12:43;20.90;53.40
16074;DHT22;8141;52.664;5.074;2023-03-30T16:15:14;20.90;53.30
16074;DHT22;8141;52.664;5.074;2023-03-30T16:17:42;20.90;53.30
16074;DHT22;8141;52.664;5.074;2023-03-30T16:22:41;20.90;53.20
16074;DHT22;8141;52.664;5.074;2023-03-30T16:25:07;20.90;53.10
16074;DHT22;8141;52.664;5.074;2023-03-30T16:27:33;20.90;53.10
16074;DHT22;8141;52.664;5.074;2023-03-30T16:29:59;20.90;53.10
16074;DHT22;8141;52.664;5.074;2023-03-30T16:32:24;20.90;53.00
16074;DHT22;8141;52.664;5.074;2023-03-30T16:34:50;20.90;53.10
16074;DHT22;8141;52.664;5.074;2023-03-30T16:37:18;20.90;53.00
16074;DHT22;8141;52.664;5.074;2023-03-30T16:39:44;20.90;52.90
16074;DHT22;8141;52.664;5.074;2023-03-30T16:42:11;21.00;53.00
16074;DHT22;8141;52.664;5.074;2023-03-30T16:44:36;20.90;52.90
16074;DHT22;8141;52.664;5.074;2023-03-30T16:47:02;21.00;53.00
16074;DHT22;8141;52.664;5.074;2023-03-30T16:49:28;20.90;52.90
16074;DHT22;8141;52.664;5.074;2023-03-30T16:51:54;20.90;52.90
16074;DHT22;8141;52.664;5.074;2023-03-30T16:54:19;20.90;52.90
16074;DHT22;8141;52.664;5.074;2023-03-30T16:56:45;20.90;53.00
16074;DHT22;8141;52.664;5.074;2023-03-30T16:59:30;20.90;52.90
16074;DHT22;8141;52.664;5.074;2023-03-30T17:01:57;20.90;53.00
16074;DHT22;8141;52.664;5.074;2023-03-30T17:04:24;20.90;53.00
16074;DHT22;8141;52.664;5.074;2023-03-30T17:06:50;20.90;53.00
16074;DHT22;8141;52.664;5.074;2023-03-30T17:09:18;20.90;52.90
16074;DHT22;8141;52.664;5.074;2023-03-30T17:11:47;20.90;52.90
16074;DHT22;8141;52.664;5.074;2023-03-30T17:14:14;20.90;53.00
16074;DHT22;8141;52.664;5.074;2023-03-30T17:16:41;20.90;52.90
16074;DHT22;8141;52.664;5.074;2023-03-30T17:19:11;20.90;53.00
16074;DHT22;8141;52.664;5.074;2023-03-30T17:21:37;20.90;52.90
16074;DHT22;8141;52.664;5.074;2023-03-30T17:24:04;20.90;53.60
16074;DHT22;8141;52.664;5.074;2023-03-30T17:26:30;20.80;52.90
16074;DHT22;8141;52.664;5.074;2023-03-30T17:28:56;20.80;53.00
16074;DHT22;8141;52.664;5.074;2023-03-30T17:31:22;20.80;53.00
16074;DHT22;8141;52.664;5.074;2023-03-30T17:33:48;20.80;53.00
16074;DHT22;8141;52.664;5.074;2023-03-30T17:36:19;20.80;53.00
16074;DHT22;8141;52.664;5.074;2023-03-30T17:38:46;20.80;53.00
16074;DHT22;8141;52.664;5.074;2023-03-30T17:41:13;20.80;53.00
16074;DHT22;8141;52.664;5.074;2023-03-30T17:43:40;20.90;53.00
16074;DHT22;8141;52.664;5.074;2023-03-30T17:46:10;20.80;53.00
16074;DHT22;8141;52.664;5.074;2023-03-30T17:48:37;20.70;53.00
16074;DHT22;8141;52.664;5.074;2023-03-30T17:51:04;20.80;53.00
16074;DHT22;8141;52.664;5.074;2023-03-30T17:53:30;20.80;53.00
16074;DHT22;8141;52.664;5.074;2023-03-30T17:55:56;20.80;53.00
16074;DHT22;8141;52.664;5.074;2023-03-30T17:58:31;20.70;53.10
16074;DHT22;8141;52.664;5.074;2023-03-30T18:01:04;20.80;53.10
16074;DHT22;8141;52.664;5.074;2023-03-30T18:03:31;20.80;53.10
16074;DHT22;8141;52.664;5.074;2023-03-30T18:05:59;20.70;53.10
16074;DHT22;8141;52.664;5.074;2023-03-30T18:08:26;20.80;53.20
16074;DHT22;8141;52.664;5.074;2023-03-30T18:10:54;20.70;53.10
16074;DHT22;8141;52.664;5.074;2023-03-30T18:13:22;20.70;53.10
16074;DHT22;8141;52.664;5.074;2023-03-30T18:15:50;20.70;53.10
16074;DHT22;8141;52.664;5.074;2023-03-30T18:18:20;20.70;53.10
16074;DHT22;8141;52.664;5.074;2023-03-30T18:20:55;20.70;53.20
16074;DHT22;8141;52.664;5.074;2023-03-30T18:23:23;20.70;53.10
16074;DHT22;8141;52.664;5.074;2023-03-30T18:25:49;20.70;53.20
16074;DHT22;8141;52.664;5.074;2023-03-30T18:28:26;20.60;54.30